Time;durP1;ratioP1;P1;durP2;ratioP2;P2;SDS_P1;SDS_P2;PMS_P1;PMS_P2;Temp;Humidity;BMP_temperature;BMP_pressure;BME280_temperature;BME280_humidity;BME280_pressure;Samples;Min_cycle;Max_cycle;Signal;HPM_P1;HPM_P2
2022/03/24 00:00:29;;;;;;;30.10;15.05;;;6.70;95.10;;;;;;4352122;28;10022799;-69
2022/03/24 00:02:54;;;;;;;33.65;22.52;;;6.70;95.40;;;;;;5019666;28;20065;-69
2022/03/24 00:05:20;;;;;;;32.72;21.42;;;6.70;95.50;;;;;;5014187;28;20037;-69
2022/03/24 00:07:46;;;;;;;35.72;23.15;;;6.70;95.70;;;;;;5008302;28;20108;-68
2022/03/24 00:10:11;;;;;;;35.88;21.77;;;6.60;95.60;;;;;;5011690;28;20045;-68
2022/03/24 00:12:39;;;;;;;31.98;20.95;;;6.60;95.50;;;;;;5014956;28;20328;-69
2022/03/24 00:15:06;;;;;;;31.08;20.55;;;6.50;95.50;;;;;;5013378;28;20045;-69
2022/03/24 00:17:32;;;;;;;31.73;20.60;;;6.50;95.50;;;;;;5014358;28;20042;-69
2022/03/24 00:19:58;;;;;;;34.75;22.00;;;6.40;95.70;;;;;;5017880;28;20795;-69
2022/03/24 00:22:24;;;;;;;35.00;22.30;;;6.40;95.90;;;;;;5007309;28;20030;-69
2022/03/24 00:24:49;;;;;;;36.75;22.27;;;6.30;95.90;;;;;;5013912;28;20021;-69
2022/03/24 00:27:15;;;;;;;41.40;24.23;;;6.30;95.90;;;;;;5015404;28;20501;-69
2022/03/24 00:29:42;;;;;;;36.75;22.33;;;6.30;96.10;;;;;;5012948;28;20192;-69
2022/03/24 00:32:08;;;;;;;38.97;24.10;;;6.30;96.00;;;;;;5014636;28;20545;-69
2022/03/24 00:34:34;;;;;;;36.42;23.50;;;6.20;96.00;;;;;;5009280;28;20045;-69
2022/03/24 00:37:00;;;;;;;36.22;22.15;;;6.30;96.00;;;;;;5018536;28;20033;-69
2022/03/24 00:39:26;;;;;;;34.40;21.23;;;6.30;96.10;;;;;;5019886;28;20086;-69
2022/03/24 00:41:52;;;;;;;32.65;21.02;;;6.20;96.30;;;;;;5022195;28;20404;-69
2022/03/24 00:44:19;;;;;;;33.75;21.92;;;6.10;96.30;;;;;;5023610;28;20022;-69
2022/03/24 00:46:45;;;;;;;35.03;21.80;;;6.00;96.70;;;;;;5017983;28;20079;-69
2022/03/24 00:49:11;;;;;;;34.78;22.45;;;5.90;97.00;;;;;;5023053;28;20029;-69
2022/03/24 00:51:36;;;;;;;37.75;22.75;;;5.90;97.10;;;;;;5021487;28;20142;-69
2022/03/24 00:54:03;;;;;;;36.25;23.40;;;5.80;97.50;;;;;;5022695;28;20872;-69
2022/03/24 00:56:28;;;;;;;36.03;23.00;;;5.80;97.80;;;;;;5025593;28;20033;-68
2022/03/24 00:58:55;;;;;;;36.03;22.27;;;5.70;97.80;;;;;;5021008;28;20055;-69
2022/03/24 01:01:21;;;;;;;34.50;21.63;;;5.70;97.90;;;;;;5019223;28;20485;-68
2022/03/24 01:03:48;;;;;;;35.53;21.67;;;5.70;97.80;;;;;;5013670;28;20034;-69
2022/03/24 01:06:16;;;;;;;35.05;21.98;;;5.70;97.60;;;;;;5032264;28;20029;-68
2022/03/24 01:08:43;;;;;;;40.25;22.88;;;5.60;97.60;;;;;;5008490;28;20079;-68
2022/03/24 01:11:09;;;;;;;34.50;22.20;;;5.60;98.00;;;;;;5016466;28;20025;-69
2022/03/24 01:13:36;;;;;;;36.25;22.63;;;5.60;98.20;;;;;;5013600;28;20747;-69
2022/03/24 01:16:03;;;;;;;34.20;22.13;;;5.50;98.50;;;;;;5022426;28;20042;-69
2022/03/24 01:18:30;;;;;;;35.45;22.50;;;5.50;98.70;;;;;;5014254;28;20033;-68
2022/03/24 01:20:56;;;;;;;36.03;23.15;;;5.50;98.80;;;;;;5026796;28;20135;-69
2022/03/24 01:23:23;;;;;;;34.33;22.05;;;5.40;98.90;;;;;;5027166;28;20124;-68
2022/03/24 01:25:49;;;;;;;34.58;21.73;;;5.40;99.00;;;;;;5022502;28;20831;-68
2022/03/24 01:28:15;;;;;;;33.22;22.60;;;5.30;99.00;;;;;;5024165;28;20045;-69
2022/03/24 01:30:41;;;;;;;33.40;21.48;;;5.30;99.10;;;;;;5024459;28;20021;-68
2022/03/24 01:33:08;;;;;;;38.05;24.38;;;5.30;99.40;;;;;;5011252;28;20022;-68
2022/03/24 01:35:34;;;;;;;36.33;22.50;;;5.20;99.70;;;;;;5000182;28;20037;-68
2022/03/24 01:38:00;;;;;;;37.05;22.60;;;5.20;99.90;;;;;;5035001;28;20036;-69
2022/03/24 01:40:26;;;;;;;35.40;21.80;;;5.10;99.90;;;;;;5012263;28;20485;-68
2022/03/24 01:42:52;;;;;;;40.08;23.30;;;5.10;99.90;;;;;;5021093;28;20025;-68
2022/03/24 01:45:19;;;;;;;37.83;23.10;;;5.10;99.90;;;;;;5013876;28;20606;-69
2022/03/24 01:47:45;;;;;;;35.33;22.60;;;5.10;99.90;;;;;;5019128;28;20037;-69
2022/03/24 01:50:11;;;;;;;37.67;22.25;;;5.10;99.90;;;;;;5016232;28;20025;-69
2022/03/24 01:52:37;;;;;;;36.55;23.30;;;5.10;99.90;;;;;;5018456;28;20058;-68
2022/03/24 01:55:06;;;;;;;41.78;24.30;;;5.00;99.90;;;;;;5010747;28;20029;-68
2022/03/24 01:57:32;;;;;;;36.78;23.05;;;5.00;99.90;;;;;;5021002;28;20030;-69
2022/03/24 01:59:59;;;;;;;38.92;22.77;;;4.90;99.90;;;;;;5027383;28;20060;-69
2022/03/24 02:02:24;;;;;;;39.15;24.15;;;4.90;99.90;;;;;;5020325;28;20030;-69
2022/03/24 02:04:50;;;;;;;42.13;24.70;;;4.80;99.90;;;;;;5018125;28;20396;-69
2022/03/24 02:07:16;;;;;;;37.63;24.25;;;4.80;99.90;;;;;;5033559;28;20117;-68
2022/03/24 02:09:42;;;;;;;37.70;22.98;;;4.80;99.90;;;;;;5021456;28;20029;-69
2022/03/24 02:12:10;;;;;;;35.25;24.05;;;4.80;99.90;;;;;;5021221;28;20186;-69
2022/03/24 02:14:37;;;;;;;36.03;23.20;;;4.80;99.90;;;;;;5024356;28;20067;-68
2022/03/24 02:17:03;;;;;;;38.45;24.17;;;4.70;99.90;;;;;;5017555;28;20041;-68
2022/03/24 02:19:30;;;;;;;36.88;23.70;;;4.70;99.90;;;;;;5026249;28;20689;-68
2022/03/24 02:21:59;;;;;;;35.95;22.83;;;4.60;99.90;;;;;;5020446;28;20033;-68
2022/03/24 02:24:26;;;;;;;36.50;22.52;;;4.60;99.90;;;;;;5017046;28;20028;-68
2022/03/24 02:26:53;;;;;;;38.67;23.58;;;4.60;99.90;;;;;;5008653;28;20084;-68
2022/03/24 02:29:19;;;;;;;36.97;22.65;;;4.60;99.90;;;;;;5023491;28;20033;-68
2022/03/24 02:31:47;;;;;;;38.15;23.15;;;4.50;99.90;;;;;;5024226;28;20404;-68
2022/03/24 02:37:01;;;;;;;36.97;23.73;;;4.50;99.90;;;;;;5021391;28;20044;-68
2022/03/24 02:39:28;;;;;;;37.53;22.80;;;4.50;99.90;;;;;;5020104;28;20518;-68
2022/03/24 02:41:57;;;;;;;35.90;23.25;;;4.40;99.90;;;;;;5030675;28;20033;-68
2022/03/24 02:44:25;;;;;;;36.35;23.08;;;4.40;99.90;;;;;;5018325;28;20135;-68
2022/03/24 02:46:53;;;;;;;35.92;23.25;;;4.40;99.90;;;;;;5027642;28;20033;-68
2022/03/24 02:49:25;;;;;;;35.55;22.65;;;4.40;99.90;;;;;;5030351;28;20018;-68
2022/03/24 02:51:52;;;;;;;37.60;23.42;;;4.30;99.90;;;;;;5032247;28;20324;-68
2022/03/24 02:54:19;;;;;;;39.40;23.50;;;4.30;99.90;;;;;;5021888;28;20033;-68
2022/03/24 02:56:45;;;;;;;36.03;21.73;;;4.30;99.90;;;;;;5026037;28;20040;-68
2022/03/24 02:59:12;;;;;;;37.10;22.35;;;4.30;99.90;;;;;;5025741;28;20029;-68
2022/03/24 03:01:41;;;;;;;37.85;22.27;;;4.30;99.90;;;;;;5032833;28;20028;-68
2022/03/24 03:04:08;;;;;;;38.78;23.45;;;4.20;99.90;;;;;;5013838;28;20033;-68
2022/03/24 03:06:34;;;;;;;38.75;24.45;;;4.20;99.90;;;;;;5015549;28;20026;-69
2022/03/24 03:09:01;;;;;;;36.35;23.45;;;4.10;99.90;;;;;;5017752;28;20109;-69
2022/03/24 03:11:28;;;;;;;37.40;23.67;;;4.10;99.90;;;;;;5023521;28;20116;-69
2022/03/24 03:13:53;;;;;;;42.38;25.50;;;4.10;99.90;;;;;;5031239;28;20029;-68
2022/03/24 03:16:19;;;;;;;42.38;25.67;;;4.00;99.90;;;;;;5023035;28;20388;-68
2022/03/24 03:18:45;;;;;;;40.28;24.95;;;4.00;99.90;;;;;;5018337;28;20049;-68
2022/03/24 03:21:12;;;;;;;38.50;22.25;;;4.00;99.90;;;;;;5017680;28;20585;-68
2022/03/24 03:23:41;;;;;;;37.13;24.13;;;4.00;99.90;;;;;;5025098;28;20120;-68
2022/03/24 03:26:08;;;;;;;40.35;24.85;;;3.90;99.90;;;;;;5019967;28;20040;-68
2022/03/24 03:28:34;;;;;;;39.08;24.20;;;3.80;99.90;;;;;;5028982;28;20038;-68
2022/03/24 03:31:01;;;;;;;39.08;24.55;;;3.80;99.90;;;;;;5025954;28;20025;-68
2022/03/24 03:33:27;;;;;;;39.35;25.35;;;3.70;99.90;;;;;;5028510;28;20021;-68
2022/03/24 03:35:53;;;;;;;40.05;25.42;;;3.70;99.90;;;;;;5016153;28;20025;-68
2022/03/24 03:38:20;;;;;;;39.55;24.38;;;3.70;99.90;;;;;;5021689;28;20139;-69
2022/03/24 03:40:46;;;;;;;40.30;25.70;;;3.70;99.90;;;;;;5030677;28;20028;-68
2022/03/24 03:43:14;;;;;;;42.22;25.23;;;3.70;99.90;;;;;;5024911;28;20025;-68
2022/03/24 03:45:41;;;;;;;38.53;24.80;;;3.70;99.90;;;;;;5036379;28;20029;-68
2022/03/24 03:48:07;;;;;;;40.75;25.38;;;3.60;99.90;;;;;;5027553;28;20021;-68
2022/03/24 03:50:33;;;;;;;38.22;24.75;;;3.60;99.90;;;;;;5025390;28;20071;-68
2022/03/24 03:52:58;;;;;;;40.30;25.13;;;3.50;99.90;;;;;;5023992;28;20025;-68
2022/03/24 03:55:24;;;;;;;40.35;25.65;;;3.50;99.90;;;;;;5025629;28;20039;-68
2022/03/24 03:57:50;;;;;;;43.65;26.15;;;3.50;99.90;;;;;;5030377;28;20088;-68
2022/03/24 04:03:03;;;;;;;43.22;25.33;;;3.40;99.90;;;;;;5030776;28;20084;-68
2022/03/24 04:05:30;;;;;;;40.50;25.65;;;3.40;99.90;;;;;;5032243;28;20033;-68
2022/03/24 04:07:56;;;;;;;41.00;26.38;;;3.40;99.90;;;;;;5029576;28;20229;-68
2022/03/24 04:10:22;;;;;;;40.60;25.60;;;3.40;99.90;;;;;;5027632;28;20088;-68
2022/03/24 04:12:48;;;;;;;42.88;26.67;;;3.40;99.90;;;;;;5021658;28;20056;-68
2022/03/24 04:15:13;;;;;;;41.25;26.02;;;3.40;99.90;;;;;;5028931;28;20099;-68
2022/03/24 04:17:39;;;;;;;44.97;27.15;;;3.40;99.90;;;;;;5020228;28;20469;-68
2022/03/24 04:20:07;;;;;;;43.90;26.50;;;3.30;99.90;;;;;;5031180;28;20029;-68
2022/03/24 04:22:33;;;;;;;42.30;26.73;;;3.30;99.90;;;;;;5038935;28;20029;-68
2022/03/24 04:24:58;;;;;;;42.67;26.75;;;3.30;99.90;;;;;;5025152;28;20463;-68
2022/03/24 04:27:24;;;;;;;42.28;27.05;;;3.20;99.90;;;;;;5029094;28;20075;-68
2022/03/24 04:29:49;;;;;;;46.45;26.73;;;3.20;99.90;;;;;;5042689;28;20467;-68
2022/03/24 04:32:16;;;;;;;42.03;25.73;;;3.30;99.90;;;;;;5045555;28;20024;-68
2022/03/24 04:34:42;;;;;;;42.05;25.55;;;3.50;99.90;;;;;;5052971;28;20087;-68
2022/03/24 04:37:07;;;;;;;40.55;26.05;;;3.60;99.90;;;;;;5051533;28;20033;-67
2022/03/24 04:39:33;;;;;;;44.15;27.73;;;3.70;99.90;;;;;;5039821;28;20024;-68
2022/03/24 04:41:58;;;;;;;46.63;27.15;;;3.70;99.90;;;;;;5041035;28;20335;-67
2022/03/24 04:44:24;;;;;;;47.72;27.83;;;3.70;99.90;;;;;;5041617;28;20103;-67
2022/03/24 04:46:50;;;;;;;49.45;28.00;;;3.70;99.90;;;;;;5040801;28;20543;-67
2022/03/24 04:49:16;;;;;;;41.60;26.08;;;3.70;99.90;;;;;;5042701;28;20020;-67
2022/03/24 04:51:42;;;;;;;40.08;25.92;;;3.60;99.90;;;;;;5034266;28;20025;-67
2022/03/24 04:54:08;;;;;;;41.83;24.65;;;3.60;99.90;;;;;;5047279;28;20078;-67
2022/03/24 04:56:34;;;;;;;40.45;24.85;;;3.50;99.90;;;;;;5037179;28;20115;-67
2022/03/24 04:58:59;;;;;;;40.55;24.77;;;3.50;99.90;;;;;;5048896;28;20100;-67
2022/03/24 05:01:25;;;;;;;44.63;26.35;;;3.40;99.90;;;;;;5036581;28;20180;-67
2022/03/24 05:03:50;;;;;;;39.38;25.45;;;3.40;99.90;;;;;;5035858;28;20021;-67
2022/03/24 05:06:17;;;;;;;44.33;26.02;;;3.30;99.90;;;;;;5041051;28;20126;-67
2022/03/24 05:08:42;;;;;;;45.22;26.80;;;3.30;99.90;;;;;;5037469;28;20029;-67
2022/03/24 05:11:08;;;;;;;42.20;26.77;;;3.20;99.90;;;;;;5036296;28;20288;-67
2022/03/24 05:13:34;;;;;;;40.95;25.80;;;3.20;99.90;;;;;;5032699;28;20039;-67
2022/03/24 05:15:59;;;;;;;42.88;26.05;;;3.10;99.90;;;;;;5039596;28;20112;-68
2022/03/24 05:18:25;;;;;;;43.70;25.95;;;3.10;99.90;;;;;;5036320;28;20041;-67
2022/03/24 05:20:51;;;;;;;49.50;26.73;;;3.00;99.90;;;;;;5030995;28;20116;-67
2022/03/24 05:23:17;;;;;;;42.35;26.60;;;3.00;99.90;;;;;;5048541;28;20082;-67
2022/03/24 05:25:49;;;;;;;46.47;27.58;;;3.00;99.90;;;;;;5038414;28;20443;-68
2022/03/24 05:28:16;;;;;;;34.35;20.80;;;3.00;99.90;;;;;;5036344;28;20497;-68
2022/03/24 05:30:42;;;;;;;48.25;27.45;;;3.00;99.90;;;;;;5044731;28;20369;-68
2022/03/24 05:33:08;;;;;;;49.55;27.10;;;3.10;99.90;;;;;;5034257;28;20100;-68
2022/03/24 05:35:35;;;;;;;53.53;30.33;;;3.20;99.90;;;;;;5036569;28;20044;-67
2022/03/24 05:38:04;;;;;;;46.20;27.27;;;3.20;99.90;;;;;;5029566;28;20036;-68
2022/03/24 05:40:31;;;;;;;42.85;26.05;;;3.20;99.90;;;;;;5038256;28;20564;-67
2022/03/24 05:42:57;;;;;;;42.78;25.63;;;3.10;99.90;;;;;;5028876;28;23071;-67
2022/03/24 05:45:23;;;;;;;47.25;28.52;;;3.10;99.90;;;;;;5025055;28;20028;-67
2022/03/24 05:47:48;;;;;;;46.88;28.08;;;3.00;99.90;;;;;;5030276;28;20028;-68
2022/03/24 05:50:14;;;;;;;49.00;29.17;;;2.90;99.90;;;;;;5035788;28;20158;-67
2022/03/24 05:52:40;;;;;;;43.30;26.83;;;2.90;99.90;;;;;;5036101;28;20484;-68
2022/03/24 05:55:08;;;;;;;46.17;28.88;;;2.90;99.90;;;;;;5034849;28;20137;-67
2022/03/24 05:57:34;;;;;;;52.60;31.15;;;2.90;99.90;;;;;;5043956;28;20040;-67
2022/03/24 06:00:01;;;;;;;52.88;30.48;;;3.00;99.90;;;;;;5044132;28;20042;-67
2022/03/24 06:02:27;;;;;;;53.28;31.50;;;3.00;99.90;;;;;;5032283;28;20055;-67
2022/03/24 06:04:53;;;;;;;48.90;29.95;;;3.00;99.90;;;;;;5049810;28;20032;-67
2022/03/24 06:07:19;;;;;;;54.13;31.85;;;3.00;99.90;;;;;;5043306;28;20110;-67
2022/03/24 06:09:46;;;;;;;51.05;31.85;;;3.00;99.90;;;;;;5042619;28;20480;-67
2022/03/24 06:12:13;;;;;;;52.83;30.38;;;3.10;99.90;;;;;;5039353;28;20092;-67
2022/03/24 06:14:40;;;;;;;50.03;29.85;;;3.10;99.90;;;;;;5034399;28;20033;-67
2022/03/24 06:17:06;;;;;;;48.63;29.05;;;3.00;99.90;;;;;;5033424;28;20044;-67
2022/03/24 06:19:35;;;;;;;52.10;30.80;;;3.00;99.90;;;;;;5038745;28;20029;-67
2022/03/24 06:22:02;;;;;;;47.95;29.10;;;3.00;99.90;;;;;;5039209;28;20159;-67
2022/03/24 06:24:29;;;;;;;47.05;29.10;;;3.00;99.90;;;;;;5038630;28;20057;-67
2022/03/24 06:26:55;;;;;;;55.30;31.83;;;3.10;99.90;;;;;;5047482;28;20396;-67
2022/03/24 06:29:21;;;;;;;51.40;31.98;;;3.10;99.90;;;;;;5046383;28;20044;-67
2022/03/24 06:31:47;;;;;;;55.10;33.83;;;3.10;99.90;;;;;;5040378;28;20045;-67
2022/03/24 06:34:12;;;;;;;61.30;34.75;;;3.10;99.90;;;;;;5040052;28;20029;-67
2022/03/24 06:36:38;;;;;;;56.10;34.55;;;3.10;99.90;;;;;;5036829;28;20174;-67
2022/03/24 06:39:05;;;;;;;55.17;33.28;;;3.10;99.90;;;;;;5031712;28;20412;-67
2022/03/24 06:41:32;;;;;;;57.00;32.67;;;3.10;99.90;;;;;;5038940;28;20459;-67
2022/03/24 06:43:59;;;;;;;59.70;32.17;;;3.20;99.90;;;;;;5035396;28;20031;-67
2022/03/24 06:46:28;;;;;;;53.40;31.48;;;3.10;99.90;;;;;;5035927;28;20026;-67
2022/03/24 06:48:54;;;;;;;60.20;34.22;;;3.20;99.90;;;;;;5043574;28;20512;-67
2022/03/24 06:51:20;;;;;;;64.07;36.85;;;3.20;99.90;;;;;;5039226;28;20075;-67
2022/03/24 06:53:46;;;;;;;80.38;46.90;;;3.20;99.90;;;;;;5037506;28;20036;-67
2022/03/24 06:56:12;;;;;;;79.65;47.03;;;3.30;99.90;;;;;;5042335;28;20405;-67
2022/03/24 06:58:38;;;;;;;67.10;40.90;;;3.40;99.90;;;;;;5041160;28;20616;-68
2022/03/24 07:01:04;;;;;;;62.13;37.33;;;3.50;99.90;;;;;;5035460;28;20136;-67
2022/03/24 07:03:30;;;;;;;57.05;33.85;;;3.50;99.90;;;;;;5043267;28;20392;-68
2022/03/24 07:05:56;;;;;;;50.85;30.95;;;3.60;99.90;;;;;;5037276;28;20049;-67
2022/03/24 07:08:25;;;;;;;51.28;30.30;;;3.60;99.90;;;;;;5036879;28;20572;-68
2022/03/24 07:10:51;;;;;;;51.75;29.60;;;3.70;99.90;;;;;;5044290;28;20032;-67
2022/03/24 07:13:17;;;;;;;52.83;30.52;;;3.80;99.90;;;;;;5040314;28;20025;-67
2022/03/24 07:15:42;;;;;;;48.42;27.92;;;3.80;99.90;;;;;;5032145;28;20114;-67
2022/03/24 07:18:08;;;;;;;46.50;29.02;;;3.90;99.90;;;;;;5041237;28;20120;-67
2022/03/24 07:20:35;;;;;;;45.97;28.70;;;4.00;99.90;;;;;;5039576;28;20095;-67
2022/03/24 07:23:03;;;;;;;49.03;29.45;;;4.20;99.90;;;;;;5041337;28;20392;-67
2022/03/24 07:25:30;;;;;;;52.45;31.40;;;4.30;99.90;;;;;;5038789;28;20064;-67
2022/03/24 07:27:57;;;;;;;51.90;33.65;;;4.40;99.90;;;;;;5043708;28;20041;-68
2022/03/24 07:30:23;;;;;;;54.47;33.92;;;4.50;99.90;;;;;;5038174;28;21675;-67
2022/03/24 07:32:50;;;;;;;56.63;35.80;;;4.60;99.90;;;;;;5040745;28;20836;-67
2022/03/24 07:35:18;;;;;;;54.13;33.38;;;4.70;99.90;;;;;;5036511;28;20551;-67
2022/03/24 07:37:44;;;;;;;60.65;38.42;;;4.70;99.90;;;;;;5040897;28;20083;-67
2022/03/24 07:40:10;;;;;;;57.22;35.38;;;4.80;99.90;;;;;;5038524;28;20033;-67
2022/03/24 07:42:37;;;;;;;51.13;32.03;;;4.80;99.90;;;;;;5044425;28;20447;-67
2022/03/24 07:45:04;;;;;;;52.88;32.03;;;4.90;99.90;;;;;;5034813;28;20039;-67
2022/03/24 07:47:30;;;;;;;50.60;32.35;;;5.00;99.90;;;;;;5036961;28;20107;-67
2022/03/24 07:49:56;;;;;;;48.67;29.80;;;5.00;99.90;;;;;;5045728;28;20115;-67
2022/03/24 07:52:27;;;;;;;50.60;31.20;;;5.20;99.90;;;;;;5043041;28;20139;-67
2022/03/24 07:54:55;;;;;;;50.33;29.73;;;5.30;99.90;;;;;;5043813;28;20059;-67
2022/03/24 07:57:25;;;;;;;49.45;30.75;;;5.40;99.90;;;;;;5046548;28;20033;-67
2022/03/24 07:59:51;;;;;;;49.55;31.95;;;5.60;99.90;;;;;;5040886;28;20041;-68
2022/03/24 08:02:17;;;;;;;46.22;29.40;;;5.80;99.90;;;;;;5038664;28;20037;-68
2022/03/24 08:04:44;;;;;;;54.33;30.33;;;5.90;99.90;;;;;;5044166;28;20393;-68
2022/03/24 08:07:10;;;;;;;52.17;30.73;;;6.00;99.90;;;;;;5045661;28;20029;-67
2022/03/24 08:09:35;;;;;;;49.63;29.92;;;6.20;99.90;;;;;;5046632;28;20021;-67
2022/03/24 08:12:01;;;;;;;52.97;31.23;;;6.40;99.90;;;;;;5042369;28;20031;-67
2022/03/24 08:14:27;;;;;;;52.17;30.73;;;6.70;99.90;;;;;;5036445;28;20436;-68
2022/03/24 08:16:53;;;;;;;53.22;30.63;;;6.90;99.90;;;;;;5044204;28;20032;-67
2022/03/24 08:19:19;;;;;;;47.63;30.30;;;7.10;99.90;;;;;;5036164;28;20053;-68
2022/03/24 08:21:44;;;;;;;49.42;30.33;;;7.40;99.90;;;;;;5037659;28;20032;-68
2022/03/24 08:24:10;;;;;;;50.50;31.13;;;7.60;99.90;;;;;;5039829;28;20464;-67
2022/03/24 08:26:37;;;;;;;46.80;30.73;;;7.90;99.90;;;;;;5037329;28;20610;-67
2022/03/24 08:29:04;;;;;;;60.00;31.95;;;8.10;99.90;;;;;;5037681;28;20128;-67
2022/03/24 08:31:30;;;;;;;51.13;30.92;;;8.20;99.90;;;;;;5042008;28;20032;-67
2022/03/24 08:33:57;;;;;;;52.70;30.95;;;8.40;99.90;;;;;;5029573;28;20401;-67
2022/03/24 08:36:23;;;;;;;54.25;31.55;;;8.60;99.90;;;;;;5035258;28;20037;-67
2022/03/24 08:38:49;;;;;;;61.38;32.47;;;8.80;99.90;;;;;;5040615;28;20047;-67
2022/03/24 08:41:15;;;;;;;52.60;30.65;;;8.90;99.90;;;;;;5036436;28;20020;-68
2022/03/24 08:43:40;;;;;;;53.58;32.45;;;9.10;99.90;;;;;;5034351;28;20069;-68
2022/03/24 08:46:08;;;;;;;50.10;31.02;;;9.10;99.90;;;;;;5042750;28;20035;-68
2022/03/24 08:48:35;;;;;;;54.25;32.40;;;9.20;99.90;;;;;;5037712;28;20208;-67
2022/03/24 08:51:00;;;;;;;59.45;32.35;;;9.20;99.90;;;;;;5043458;28;20025;-68
2022/03/24 08:53:26;;;;;;;58.97;32.08;;;9.30;99.90;;;;;;5043864;28;20432;-69
2022/03/24 08:55:51;;;;;;;61.47;32.33;;;9.30;99.90;;;;;;5044231;28;20409;-68
2022/03/24 08:58:18;;;;;;;50.08;30.88;;;9.40;99.90;;;;;;5041868;28;20110;-68
2022/03/24 09:00:46;;;;;;;54.50;32.40;;;9.50;99.90;;;;;;5046640;28;20430;-70
2022/03/24 09:03:11;;;;;;;50.90;30.08;;;9.60;99.90;;;;;;5045498;28;20393;-69
2022/03/24 09:05:37;;;;;;;55.33;31.42;;;9.70;99.90;;;;;;5042591;28;20033;-69
2022/03/24 09:08:04;;;;;;;63.67;33.10;;;9.80;99.90;;;;;;5046832;28;20032;-69
2022/03/24 09:10:30;;;;;;;57.65;33.45;;;9.90;99.90;;;;;;5047905;28;20299;-69
2022/03/24 09:12:57;;;;;;;58.60;32.83;;;10.10;99.90;;;;;;5045087;28;20496;-69
2022/03/24 09:15:23;;;;;;;52.40;31.48;;;10.20;99.90;;;;;;5034142;28;20033;-69
2022/03/24 09:17:48;;;;;;;54.25;32.28;;;10.20;99.90;;;;;;5043369;28;20366;-69
2022/03/24 09:20:18;;;;;;;56.72;33.15;;;10.30;99.90;;;;;;5044296;28;20465;-68
2022/03/24 09:22:46;;;;;;;51.95;32.78;;;10.30;99.90;;;;;;5047447;28;20105;-69
2022/03/24 09:25:14;;;;;;;57.85;32.75;;;10.40;99.90;;;;;;5041957;28;20036;-69
2022/03/24 09:27:41;;;;;;;52.97;31.50;;;10.50;99.90;;;;;;5044326;28;20097;-69
2022/03/24 09:30:08;;;;;;;55.65;33.58;;;10.60;99.90;;;;;;5045040;28;20049;-68
2022/03/24 09:32:35;;;;;;;52.58;32.15;;;10.60;99.90;;;;;;5042181;28;20017;-69
2022/03/24 09:35:02;;;;;;;56.63;33.08;;;10.70;99.90;;;;;;5046441;28;20060;-69
2022/03/24 09:37:28;;;;;;;50.72;32.58;;;10.80;99.90;;;;;;5045515;28;20107;-69
2022/03/24 09:39:54;;;;;;;55.60;33.33;;;10.90;99.90;;;;;;5046889;28;20043;-69
2022/03/24 09:42:21;;;;;;;50.53;33.00;;;11.00;99.90;;;;;;5044606;28;20017;-69
2022/03/24 09:44:48;;;;;;;59.00;33.80;;;11.20;99.90;;;;;;5038234;28;20453;-69
2022/03/24 09:47:14;;;;;;;61.25;33.10;;;11.30;99.90;;;;;;5041309;28;20029;-69
2022/03/24 09:49:42;;;;;;;50.10;32.60;;;11.40;99.90;;;;;;5050734;28;20048;-69
2022/03/24 09:52:12;;;;;;;55.63;32.45;;;11.50;99.90;;;;;;5041201;28;20025;-69
2022/03/24 09:54:39;;;;;;;51.28;33.47;;;11.60;99.90;;;;;;5047441;28;20033;-69
2022/03/24 09:57:06;;;;;;;52.88;31.92;;;11.70;99.90;;;;;;5045625;28;20025;-69
2022/03/24 09:59:32;;;;;;;55.33;33.00;;;11.80;99.90;;;;;;5042056;28;20033;-69
2022/03/24 10:01:58;;;;;;;49.85;32.38;;;11.90;99.90;;;;;;5046220;28;20033;-69
2022/03/24 10:04:24;;;;;;;56.40;34.15;;;12.00;99.90;;;;;;5034038;28;20112;-68
2022/03/24 10:07:03;;;;;;;58.63;33.42;;;12.10;99.90;;;;;;5041598;28;20108;-69
2022/03/24 10:09:40;;;;;;;54.22;33.47;;;12.20;99.90;;;;;;5041478;28;20400;-69
2022/03/24 10:12:08;;;;;;;57.28;33.50;;;12.40;99.90;;;;;;5045887;28;20029;-69
2022/03/24 10:14:34;;;;;;;54.60;33.30;;;12.50;99.90;;;;;;5043905;28;20480;-68
2022/03/24 10:17:10;;;;;;;59.30;34.67;;;12.60;99.30;;;;;;5044554;28;20068;-70
2022/03/24 10:19:37;;;;;;;58.30;34.47;;;12.80;98.80;;;;;;5045945;28;20043;-69
2022/03/24 10:22:10;;;;;;;56.65;33.90;;;12.90;98.90;;;;;;5043285;28;20063;-68
2022/03/24 10:24:43;;;;;;;56.63;35.45;;;13.00;99.10;;;;;;5035944;28;20029;-69
2022/03/24 10:27:11;;;;;;;58.47;33.58;;;13.20;98.20;;;;;;5044793;28;20067;-69
2022/03/24 10:29:37;;;;;;;50.45;32.90;;;13.30;97.70;;;;;;5045432;28;20560;-68
2022/03/24 10:32:09;;;;;;;56.28;34.25;;;13.50;97.70;;;;;;5042760;28;20112;-69
2022/03/24 10:34:36;;;;;;;50.78;33.20;;;13.60;97.70;;;;;;5047447;28;20059;-70
2022/03/24 10:37:08;;;;;;;54.78;33.70;;;13.80;96.90;;;;;;5041935;28;20412;-69
2022/03/24 10:39:35;;;;;;;54.42;32.58;;;13.80;96.10;;;;;;5044277;28;20033;-69
2022/03/24 10:42:31;;;;;;;57.17;33.13;;;14.00;94.90;;;;;;5041560;28;20197;-70
2022/03/24 10:45:04;;;;;;;59.42;34.17;;;14.10;94.40;;;;;;5015830;28;20041;-70
2022/03/24 10:47:51;;;;;;;57.58;34.67;;;14.10;94.50;;;;;;5039398;28;20450;-70
2022/03/24 10:50:50;;;;;;;57.03;34.03;;;14.30;95.30;;;;;;5036791;28;20029;-69
2022/03/24 10:53:16;;;;;;;52.53;33.08;;;14.40;95.30;;;;;;5023647;28;20091;-70
2022/03/24 10:55:50;;;;;;;66.43;33.88;;;14.40;94.20;;;;;;5047308;28;20227;-69
2022/03/24 10:58:43;;;;;;;57.95;34.97;;;14.50;93.50;;;;;;5050362;28;20024;-70
2022/03/24 11:01:12;;;;;;;56.88;34.67;;;14.60;93.40;;;;;;5031533;28;20408;-69
2022/03/24 11:03:39;;;;;;;50.97;33.03;;;14.60;92.80;;;;;;5023072;28;20033;-69
2022/03/24 11:06:20;;;;;;;56.13;33.90;;;14.80;91.80;;;;;;5040447;28;20037;-69
2022/03/24 11:09:19;;;;;;;57.72;34.30;;;14.80;95.30;;;;;;5054802;28;20039;-69
2022/03/24 11:11:45;;;;;;;55.80;34.28;;;14.90;94.30;;;;;;5049942;28;20193;-70
2022/03/24 11:14:11;;;;;;;56.28;34.33;;;14.90;93.60;;;;;;5035610;28;20387;-69
2022/03/24 11:16:36;;;;;;;56.53;33.95;;;15.00;93.20;;;;;;5044863;28;20039;-70
2022/03/24 11:19:13;;;;;;;53.50;33.45;;;15.00;61.60;;;;;;5044774;28;20116;-70
2022/03/24 11:21:38;;;;;;;56.75;34.40;;;15.10;60.40;;;;;;5035531;28;20033;-69
2022/03/24 11:24:05;;;;;;;58.45;33.38;;;15.20;60.00;;;;;;5039940;28;20040;-69
2022/03/24 11:26:31;;;;;;;50.05;32.40;;;15.20;58.50;;;;;;5043221;28;20322;-68
2022/03/24 11:28:58;;;;;;;54.55;33.25;;;15.20;58.30;;;;;;5046816;28;20045;-68
2022/03/24 11:31:28;;;;;;;52.42;33.88;;;15.20;58.10;;;;;;5039215;28;20075;-69
2022/03/24 11:33:54;;;;;;;52.58;32.65;;;15.30;57.50;;;;;;5039651;28;20504;-68
2022/03/24 11:36:21;;;;;;;55.47;32.58;;;15.30;56.60;;;;;;5046882;28;20040;-67
2022/03/24 11:38:51;;;;;;;51.40;31.67;;;15.30;57.90;;;;;;5053995;28;20110;-67
2022/03/24 11:41:40;;;;;;;49.38;31.63;;;15.40;56.00;;;;;;5047990;28;20032;-70
2022/03/24 11:44:15;;;;;;;49.22;30.90;;;15.50;55.60;;;;;;5036689;28;20064;-70
2022/03/24 11:46:53;;;;;;;50.78;32.13;;;15.60;55.10;;;;;;5036422;28;20021;-69
2022/03/24 11:49:21;;;;;;;54.05;31.95;;;15.80;65.10;;;;;;5033750;28;20433;-70
2022/03/24 11:51:49;;;;;;;50.78;31.80;;;15.80;64.50;;;;;;5054356;28;20028;-71
2022/03/24 11:54:36;;;;;;;49.85;32.47;;;15.90;63.90;;;;;;5040142;28;20068;-71
2022/03/24 11:57:28;;;;;;;48.90;31.55;;;16.20;62.80;;;;;;5031204;28;20060;-70
2022/03/24 12:00:12;;;;;;;47.35;29.98;;;16.40;61.90;;;;;;5054691;28;20496;-71
2022/03/24 12:02:43;;;;;;;48.25;30.10;;;16.50;60.70;;;;;;5035791;28;20056;-71
2022/03/24 12:05:10;;;;;;;43.17;29.63;;;16.60;58.70;;;;;;5043731;28;20025;-71
2022/03/24 12:07:36;;;;;;;50.92;31.23;;;16.60;58.80;;;;;;5037250;28;20637;-71
2022/03/24 12:10:13;;;;;;;43.17;28.98;;;16.70;57.70;;;;;;5056180;28;20436;-71
2022/03/24 12:12:59;;;;;;;43.50;30.15;;;16.90;57.10;;;;;;5047988;28;20056;-70
2022/03/24 12:15:25;;;;;;;45.70;28.85;;;17.00;56.10;;;;;;5036571;28;20044;-71
2022/03/24 12:18:20;;;;;;;40.80;27.83;;;17.00;56.50;;;;;;5051156;28;20028;-70
2022/03/24 12:20:46;;;;;;;40.83;27.60;;;17.10;62.50;;;;;;5021291;28;20045;-70
2022/03/24 12:23:12;;;;;;;43.78;27.67;;;16.90;60.20;;;;;;5040149;28;20033;-70
2022/03/24 12:25:39;;;;;;;39.58;25.80;;;16.90;60.40;;;;;;5043140;28;22220;-70
2022/03/24 12:28:12;;;;;;;37.58;25.92;;;17.00;73.20;;;;;;5047260;28;20081;-70
2022/03/24 12:30:42;;;;;;;38.08;26.77;;;17.10;72.20;;;;;;5054793;28;20497;-70
2022/03/24 12:33:10;;;;;;;43.75;26.52;;;17.30;70.70;;;;;;5044196;28;20084;-70
2022/03/24 12:35:48;;;;;;;39.08;26.48;;;17.30;69.50;;;;;;5039955;28;20037;-70
2022/03/24 12:38:30;;;;;;;39.08;24.92;;;17.40;68.40;;;;;;5045436;28;20508;-70
2022/03/24 12:41:09;;;;;;;36.03;24.42;;;17.30;66.70;;;;;;5043875;28;20102;-70